createdAt,value
2023-05-05T00:01:01.133Z,146.65
2023-05-05T00:03:28.150Z,135.77
2023-05-05T00:05:55.401Z,142.18
2023-05-05T00:08:23.114Z,141.45
2023-05-05T00:10:53.587Z,141.40
2023-05-05T00:13:21.230Z,138.38
2023-05-05T00:15:52.615Z,138.85
2023-05-05T00:18:20.758Z,143.63
2023-05-05T00:20:48.008Z,138.15
2023-05-05T00:23:16.088Z,139.57
2023-05-05T00:25:43.528Z,139.85
2023-05-05T00:28:14.527Z,136.70
2023-05-05T00:30:41.767Z,136.25
2023-05-05T00:33:10.032Z,139.07
2023-05-05T00:35:37.081Z,134.45
2023-05-05T00:38:05.028Z,139.50
2023-05-05T00:40:32.058Z,138.75
2023-05-05T00:43:01.081Z,134.65
2023-05-05T00:45:28.372Z,142.27
2023-05-05T00:47:58.439Z,138.68
2023-05-05T00:50:30.442Z,140.05
2023-05-05T00:53:03.345Z,140.57
2023-05-05T00:55:34.343Z,133.70
2023-05-05T00:58:03.157Z,139.27
2023-05-05T01:00:30.878Z,136.20
2023-05-05T01:02:58.529Z,137.20
2023-05-05T01:05:28.001Z,135.63
2023-05-05T01:08:13.631Z,138.00
2023-05-05T01:10:57.580Z,138.90
2023-05-05T01:13:50.275Z,133.85
2023-05-05T01:16:26.896Z,142.40
2023-05-05T01:19:40.292Z,142.45
2023-05-05T01:22:12.275Z,136.32
2023-05-05T01:25:04.054Z,140.07
2023-05-05T01:27:45.078Z,139.23
2023-05-05T01:30:30.909Z,133.85
2023-05-05T01:33:11.325Z,141.00
2023-05-05T01:35:43.900Z,136.13
2023-05-05T01:38:22.352Z,139.85
2023-05-05T01:41:05.225Z,140.00
2023-05-05T01:43:35.881Z,132.43
2023-05-05T01:46:04.946Z,133.65
2023-05-05T01:48:33.784Z,136.00
2023-05-05T01:51:04.956Z,139.75
2023-05-05T01:53:32.957Z,139.48
2023-05-05T01:56:01.687Z,136.80
2023-05-05T01:58:30.239Z,133.98
2023-05-05T02:00:59.062Z,141.60
2023-05-05T02:03:27.628Z,137.13
2023-05-05T02:05:55.535Z,138.52
2023-05-05T02:08:26.203Z,135.10
2023-05-05T02:10:55.242Z,141.77
2023-05-05T02:13:24.746Z,136.38
2023-05-05T02:15:53.660Z,143.13
2023-05-05T02:18:24.922Z,137.52
2023-05-05T02:20:53.189Z,142.20
2023-05-05T02:23:20.290Z,143.60
2023-05-05T02:25:51.125Z,144.50
2023-05-05T02:28:24.840Z,151.85
2023-05-05T02:30:58.504Z,139.85
2023-05-05T02:33:29.351Z,143.00
2023-05-05T02:35:57.698Z,147.40
2023-05-05T02:38:28.764Z,143.05
2023-05-05T02:41:01.695Z,149.93
2023-05-05T02:43:31.772Z,141.07
2023-05-05T02:45:58.903Z,148.32
2023-05-05T02:48:29.874Z,145.32
2023-05-05T02:51:00.502Z,143.02
2023-05-05T02:53:36.369Z,141.80
2023-05-05T02:56:31.077Z,138.38
2023-05-05T02:59:16.144Z,148.38
2023-05-05T03:02:15.540Z,145.27
2023-05-05T03:04:58.937Z,139.23
2023-05-05T03:07:30.564Z,149.18
2023-05-05T03:10:08.032Z,152.38
2023-05-05T03:12:49.925Z,145.68
2023-05-05T03:15:25.454Z,144.70
2023-05-05T03:17:54.076Z,148.48
2023-05-05T03:20:22.809Z,146.23
2023-05-05T03:22:51.376Z,149.40
2023-05-05T03:25:18.287Z,146.73
2023-05-05T03:27:45.520Z,147.15
2023-05-05T03:30:15.307Z,146.15
2023-05-05T03:32:48.586Z,141.07
2023-05-05T03:35:16.385Z,142.05
2023-05-05T03:37:43.291Z,140.13
2023-05-05T03:40:14.907Z,139.27
2023-05-05T03:42:41.873Z,140.10
2023-05-05T03:45:09.413Z,144.93
2023-05-05T03:47:37.020Z,146.48
2023-05-05T03:50:05.636Z,146.20
2023-05-05T03:52:32.740Z,148.00
2023-05-05T03:55:00.705Z,148.15
2023-05-05T03:57:27.867Z,148.32
2023-05-05T03:59:54.668Z,151.07
2023-05-05T04:02:22.121Z,147.77
2023-05-05T04:04:49.360Z,146.27
2023-05-05T04:07:16.487Z,146.02
2023-05-05T04:09:47.192Z,141.80
2023-05-05T04:12:14.464Z,140.00
2023-05-05T04:14:41.686Z,141.38
2023-05-05T04:17:09.356Z,144.05
2023-05-05T04:19:36.367Z,141.82
2023-05-05T04:22:04.061Z,140.15
2023-05-05T04:24:37.276Z,139.93
2023-05-05T04:27:04.625Z,144.40
2023-05-05T04:29:31.492Z,147.85
2023-05-05T04:31:58.992Z,150.50
2023-05-05T04:34:25.831Z,144.30
2023-05-05T04:36:52.725Z,146.93
2023-05-05T04:39:20.411Z,149.20
2023-05-05T04:41:48.026Z,145.88
2023-05-05T04:44:16.463Z,146.60
2023-05-05T04:46:44.490Z,144.68
2023-05-05T04:49:11.590Z,142.75
2023-05-05T04:51:42.860Z,146.98
2023-05-05T04:54:10.043Z,146.30
2023-05-05T04:56:37.300Z,144.07
2023-05-05T04:59:04.801Z,143.13
2023-05-05T05:01:32.132Z,143.52
2023-05-05T05:03:59.268Z,141.93
2023-05-05T05:06:27.589Z,139.35
2023-05-05T05:08:54.900Z,139.75
2023-05-05T05:11:22.566Z,141.10
2023-05-05T05:13:49.875Z,138.80
2023-05-05T05:16:17.167Z,142.38
2023-05-05T05:18:44.099Z,138.23
2023-05-05T05:21:13.229Z,139.43
2023-05-05T05:23:48.681Z,132.65
2023-05-05T05:26:16.425Z,147.73
2023-05-05T05:28:43.497Z,139.80
2023-05-05T05:31:12.389Z,168.27
2023-05-05T05:33:41.002Z,190.60
2023-05-05T05:36:08.404Z,145.90
2023-05-05T05:38:38.834Z,152.38
2023-05-05T05:41:11.986Z,191.50
2023-05-05T05:43:47.981Z,207.70
2023-05-05T05:46:21.623Z,261.00
2023-05-05T05:48:49.110Z,184.55
2023-05-05T05:51:16.446Z,152.98
2023-05-05T05:53:43.758Z,135.40
2023-05-05T05:56:11.311Z,138.45
2023-05-05T05:58:43.816Z,139.13
2023-05-05T06:01:11.834Z,141.68
2023-05-05T06:03:39.023Z,137.30
2023-05-05T06:06:07.772Z,136.45
2023-05-05T06:08:35.663Z,131.73
2023-05-05T06:11:02.798Z,133.43
2023-05-05T06:13:30.286Z,137.90
2023-05-05T06:15:57.634Z,138.60
2023-05-05T06:18:24.990Z,141.18
2023-05-05T06:20:56.055Z,148.02
2023-05-05T06:23:26.624Z,144.80
2023-05-05T06:25:58.615Z,138.68
2023-05-05T06:28:26.072Z,135.65
2023-05-05T06:30:53.014Z,148.57
2023-05-05T06:33:19.917Z,138.18
2023-05-05T06:35:47.847Z,129.88
2023-05-05T06:38:14.805Z,134.13
2023-05-05T06:40:42.115Z,134.40
2023-05-05T06:43:12.303Z,131.18
2023-05-05T06:45:46.102Z,137.68
2023-05-05T06:48:13.190Z,129.43
2023-05-05T06:50:40.485Z,127.85
2023-05-05T06:53:10.020Z,128.68
2023-05-05T06:55:36.970Z,127.97
2023-05-05T06:58:06.615Z,135.20
2023-05-05T07:00:38.924Z,127.93
2023-05-05T07:03:05.951Z,134.60
2023-05-05T07:05:33.252Z,129.50
2023-05-05T07:08:00.343Z,129.82
2023-05-05T07:10:28.125Z,133.90
2023-05-05T07:12:55.753Z,130.68
2023-05-05T07:15:28.829Z,129.85
2023-05-05T07:17:57.596Z,128.65
2023-05-05T07:20:25.401Z,125.88
2023-05-05T07:22:52.463Z,132.88
2023-05-05T07:25:19.722Z,133.63
2023-05-05T07:27:46.796Z,128.88
2023-05-05T07:30:18.099Z,130.57
2023-05-05T07:32:48.399Z,129.30
2023-05-05T07:35:17.980Z,128.38
2023-05-05T07:37:46.009Z,123.75
2023-05-05T07:40:15.301Z,124.88
2023-05-05T07:42:44.994Z,121.07
2023-05-05T07:45:11.975Z,126.78
2023-05-05T07:47:42.208Z,125.55
2023-05-05T07:50:09.758Z,128.30
2023-05-05T07:52:44.921Z,121.88
2023-05-05T07:55:15.148Z,142.00
2023-05-05T07:57:44.675Z,120.50
2023-05-05T08:00:13.736Z,119.40
2023-05-05T08:02:44.267Z,120.43
2023-05-05T08:05:12.275Z,122.35
2023-05-05T08:07:41.678Z,124.70
2023-05-05T08:10:15.326Z,123.80
2023-05-05T08:12:44.733Z,119.88
2023-05-05T08:15:11.815Z,122.93
2023-05-05T08:17:56.070Z,126.97
2023-05-05T08:20:27.588Z,118.65
2023-05-05T08:22:54.862Z,121.82
2023-05-05T08:25:22.218Z,122.68
2023-05-05T08:27:49.102Z,124.38
2023-05-05T08:30:21.149Z,119.50
2023-05-05T08:32:48.378Z,124.35
2023-05-05T08:35:15.838Z,121.25
2023-05-05T08:37:43.130Z,117.25
2023-05-05T08:40:16.920Z,119.32
2023-05-05T08:42:46.677Z,124.68
2023-05-05T08:45:13.628Z,117.97
2023-05-05T08:47:40.909Z,117.90
2023-05-05T08:50:10.566Z,118.20
2023-05-05T08:52:45.671Z,119.00
2023-05-05T08:55:25.707Z,115.97
2023-05-05T08:57:57.850Z,121.82
2023-05-05T09:00:27.374Z,148.35
2023-05-05T09:02:57.620Z,124.72
2023-05-05T09:05:26.301Z,124.80
2023-05-05T09:07:53.338Z,118.88
2023-05-05T09:10:25.827Z,116.60
2023-05-05T09:12:55.314Z,118.45
2023-05-05T09:15:22.209Z,120.65
2023-05-05T09:17:49.192Z,115.85
2023-05-05T09:20:19.010Z,116.07
2023-05-05T09:22:47.323Z,114.07
2023-05-05T09:25:15.981Z,115.10
2023-05-05T09:27:49.062Z,113.35
2023-05-05T09:30:18.074Z,117.60
2023-05-05T09:32:50.783Z,115.53
2023-05-05T09:37:45.896Z,119.95
2023-05-05T09:40:18.050Z,114.35
2023-05-05T09:42:47.695Z,118.28
2023-05-05T09:45:19.967Z,117.35
2023-05-05T09:47:48.176Z,116.53
2023-05-05T09:50:21.232Z,114.25
2023-05-05T09:52:59.914Z,118.93
2023-05-05T09:55:28.161Z,117.15
2023-05-05T09:57:55.411Z,117.72
2023-05-05T10:00:22.611Z,114.15
2023-05-05T10:02:49.707Z,114.07
2023-05-05T10:05:18.281Z,120.35
2023-05-05T10:07:47.658Z,116.55
2023-05-05T10:10:17.779Z,112.05
2023-05-05T10:12:47.676Z,112.35
2023-05-05T10:15:16.388Z,114.63
2023-05-05T10:18:06.104Z,110.50
2023-05-05T10:20:38.720Z,111.07
2023-05-05T10:23:10.386Z,114.00
2023-05-05T10:25:45.252Z,111.95
2023-05-05T10:28:22.530Z,112.88
2023-05-05T10:30:52.676Z,111.85
2023-05-05T10:33:45.430Z,113.15
2023-05-05T10:36:13.392Z,115.00
2023-05-05T10:38:41.926Z,110.82
2023-05-05T10:41:11.949Z,109.90
2023-05-05T10:43:41.791Z,114.30
2023-05-05T10:46:12.322Z,111.70
2023-05-05T10:48:46.355Z,113.50
2023-05-05T10:51:39.203Z,115.88
2023-05-05T10:54:14.342Z,115.05
2023-05-05T10:56:43.123Z,115.18
2023-05-05T10:59:38.506Z,109.35
2023-05-05T11:02:32.221Z,114.70
2023-05-05T11:05:05.636Z,108.22
2023-05-05T11:07:37.122Z,113.35
2023-05-05T11:10:06.578Z,107.82
2023-05-05T11:13:03.193Z,110.45
2023-05-05T11:15:30.479Z,109.75
2023-05-05T11:18:05.834Z,111.80
2023-05-05T11:20:59.852Z,110.72
2023-05-05T11:23:30.234Z,116.18
2023-05-05T11:26:00.344Z,113.70
2023-05-05T11:28:34.277Z,116.50
2023-05-05T11:31:04.116Z,124.75
2023-05-05T11:33:38.886Z,122.43
2023-05-05T11:36:20.104Z,118.32
2023-05-05T11:39:09.249Z,121.93
2023-05-05T11:42:16.453Z,120.80
2023-05-05T11:44:43.662Z,122.43
2023-05-05T11:47:10.502Z,120.55
2023-05-05T11:49:39.022Z,127.13
2023-05-05T11:52:08.274Z,125.18
2023-05-05T11:54:47.857Z,122.70
2023-05-05T11:57:17.970Z,121.03
2023-05-05T11:59:58.360Z,126.32
2023-05-05T12:02:28.392Z,125.10
2023-05-05T12:04:56.756Z,122.68
2023-05-05T12:07:26.824Z,127.90
2023-05-05T12:09:56.703Z,135.35
2023-05-05T12:12:37.714Z,121.30
2023-05-05T12:15:05.809Z,121.65
2023-05-05T12:17:40.829Z,121.97
2023-05-05T12:20:11.555Z,123.38
2023-05-05T12:22:39.289Z,121.72
2023-05-05T12:25:08.611Z,117.97
2023-05-05T12:27:35.953Z,115.43
2023-05-05T12:30:15.807Z,114.15
2023-05-05T12:32:44.212Z,112.93
2023-05-05T12:35:13.109Z,112.22
2023-05-05T12:37:45.481Z,109.07
2023-05-05T12:40:45.791Z,108.82
2023-05-05T12:43:29.067Z,122.50
2023-05-05T12:46:42.947Z,113.82
2023-05-05T12:55:02.101Z,112.80
2023-05-05T12:57:29.210Z,112.60
2023-05-05T12:59:56.623Z,111.43
2023-05-05T13:02:34.274Z,114.97
2023-05-05T13:05:01.626Z,115.55
2023-05-05T13:07:28.641Z,111.78
2023-05-05T13:10:09.567Z,115.55
2023-05-05T13:12:36.815Z,114.10
2023-05-05T13:15:04.598Z,113.28
2023-05-05T13:17:34.131Z,117.07
2023-05-05T13:20:01.988Z,115.25
2023-05-05T13:22:29.143Z,115.68
2023-05-05T13:24:56.009Z,115.10
2023-05-05T13:27:22.967Z,115.00
2023-05-05T13:29:49.898Z,113.72
2023-05-05T13:32:17.092Z,110.78
2023-05-05T13:34:44.288Z,108.80
2023-05-05T13:37:12.068Z,109.82
2023-05-05T13:39:39.124Z,109.47
2023-05-05T13:42:05.954Z,107.18
2023-05-05T13:44:32.943Z,108.40
2023-05-05T13:47:00.258Z,111.60
2023-05-05T13:49:27.463Z,109.32
2023-05-05T13:51:56.067Z,110.60
2023-05-05T13:54:25.367Z,107.78
2023-05-05T13:57:00.385Z,109.32
2023-05-05T13:59:27.828Z,128.80
2023-05-05T14:01:54.970Z,111.15
2023-05-05T14:04:22.224Z,118.05
2023-05-05T14:06:49.401Z,113.10
2023-05-05T14:09:16.979Z,106.25
2023-05-05T14:11:44.033Z,110.45
2023-05-05T14:14:11.377Z,106.70
2023-05-05T14:16:38.741Z,129.65
2023-05-05T14:19:05.646Z,139.10
2023-05-05T14:21:34.790Z,108.25
2023-05-05T14:24:02.094Z,125.18
2023-05-05T14:26:33.874Z,118.10
2023-05-05T14:29:00.741Z,106.20
2023-05-05T14:31:30.351Z,108.28
2023-05-05T14:33:57.299Z,110.40
2023-05-05T14:36:24.347Z,111.82
2023-05-05T14:38:51.215Z,123.40
2023-05-05T14:41:18.207Z,108.88
2023-05-05T14:43:45.447Z,105.53
2023-05-05T14:46:12.585Z,105.72
2023-05-05T14:48:39.485Z,104.25
2023-05-05T14:51:06.874Z,103.50
2023-05-05T14:53:34.909Z,105.28
2023-05-05T14:56:02.581Z,103.43
2023-05-05T14:58:29.552Z,105.07
2023-05-05T15:00:56.682Z,110.07
2023-05-05T15:03:26.279Z,107.07
2023-05-05T15:05:53.592Z,108.05
2023-05-05T15:08:20.424Z,109.25
2023-05-05T15:10:47.749Z,103.95
2023-05-05T15:13:15.025Z,106.82
2023-05-05T15:15:42.552Z,104.55
2023-05-05T15:18:09.386Z,104.38
2023-05-05T15:20:36.237Z,107.45
2023-05-05T15:23:03.353Z,104.50
2023-05-05T15:25:30.468Z,108.32
2023-05-05T15:27:58.784Z,107.50
2023-05-05T15:30:27.102Z,109.55
2023-05-05T15:32:54.504Z,111.50
2023-05-05T15:35:21.803Z,114.05
2023-05-05T15:37:51.789Z,116.03
2023-05-05T15:40:18.933Z,107.97
2023-05-05T15:42:45.911Z,112.35
2023-05-05T15:45:13.071Z,109.78
2023-05-05T15:47:40.086Z,116.63
2023-05-05T15:50:07.971Z,110.97
2023-05-05T15:52:35.456Z,115.28
2023-05-05T15:55:02.336Z,111.28
2023-05-05T15:57:29.320Z,110.03
2023-05-05T15:59:56.216Z,113.57
2023-05-05T16:02:23.129Z,110.85
2023-05-05T16:04:52.171Z,110.85
2023-05-05T16:07:19.386Z,110.43
2023-05-05T16:09:46.491Z,109.10
2023-05-05T16:12:13.288Z,112.13
2023-05-05T16:14:40.137Z,108.78
2023-05-05T16:17:09.327Z,112.43
2023-05-05T16:19:36.513Z,113.65
2023-05-05T16:22:04.072Z,114.20
2023-05-05T16:24:31.290Z,118.28
2023-05-05T16:27:00.471Z,118.57
2023-05-05T16:29:27.414Z,115.03
2023-05-05T16:31:54.589Z,213.95
2023-05-05T16:34:27.685Z,182.18
2023-05-05T16:36:54.734Z,115.15
2023-05-05T16:39:23.837Z,116.57
2023-05-05T16:41:51.062Z,229.82
2023-05-05T16:44:17.949Z,151.60
2023-05-05T16:46:51.601Z,240.85
2023-05-05T16:49:19.008Z,166.52
2023-05-05T16:51:48.491Z,204.13
2023-05-05T16:54:16.101Z,119.90
2023-05-05T16:56:42.886Z,112.50
2023-05-05T16:59:10.183Z,115.63
2023-05-05T17:01:39.120Z,118.53
2023-05-05T17:04:06.070Z,117.82
2023-05-05T17:06:33.279Z,117.55
2023-05-05T17:09:00.586Z,123.47
2023-05-05T17:11:27.506Z,121.80
2023-05-05T17:13:54.481Z,124.20
2023-05-05T17:16:21.698Z,121.93
2023-05-05T17:18:48.539Z,121.85
2023-05-05T17:21:17.714Z,118.93
2023-05-05T17:23:44.814Z,120.50
2023-05-05T17:26:12.007Z,119.90
2023-05-05T17:28:38.798Z,121.43
2023-05-05T17:31:06.031Z,124.35
2023-05-05T17:33:35.072Z,125.25
2023-05-05T17:36:02.350Z,125.35
2023-05-05T17:38:29.450Z,122.53
2023-05-05T17:40:56.267Z,125.13
2023-05-05T17:43:23.594Z,124.57
2023-05-05T17:45:50.607Z,125.63
2023-05-05T17:48:20.133Z,125.35
2023-05-05T17:50:51.163Z,128.07
2023-05-05T17:53:19.264Z,124.47
2023-05-05T17:55:47.106Z,126.15
2023-05-05T17:58:14.024Z,122.75
2023-05-05T18:00:43.679Z,126.85
2023-05-05T18:03:11.046Z,127.07
2023-05-05T18:05:38.087Z,126.25
2023-05-05T18:08:08.173Z,126.53
2023-05-05T18:10:37.732Z,124.78
2023-05-05T18:13:05.034Z,131.43
2023-05-05T18:15:32.016Z,130.18
2023-05-05T18:18:01.011Z,132.35
2023-05-05T18:20:28.056Z,136.90
2023-05-05T18:22:55.602Z,129.82
2023-05-05T18:25:25.940Z,133.13
2023-05-05T18:27:53.836Z,138.70
2023-05-05T18:30:20.935Z,131.32
2023-05-05T18:32:49.312Z,126.88
2023-05-05T18:35:21.644Z,131.48
2023-05-05T18:37:48.612Z,131.70
2023-05-05T18:40:20.963Z,131.90
2023-05-05T18:42:56.112Z,136.90
2023-05-05T18:45:24.766Z,131.73
2023-05-05T18:47:53.588Z,134.38
2023-05-05T18:50:25.978Z,129.13
2023-05-05T18:52:54.185Z,139.48
2023-05-05T18:55:24.037Z,130.57
2023-05-05T18:57:53.574Z,134.65
2023-05-05T19:00:23.641Z,131.05
2023-05-05T19:02:52.349Z,128.40
2023-05-05T19:05:19.396Z,130.18
2023-05-05T19:07:49.077Z,131.63
2023-05-05T19:10:17.541Z,130.00
2023-05-05T19:12:56.707Z,131.05
2023-05-05T19:15:26.176Z,135.27
2023-05-05T19:17:54.754Z,132.25
2023-05-05T19:20:25.853Z,127.05
2023-05-05T19:22:58.814Z,138.15
2023-05-05T19:25:38.055Z,132.68
2023-05-05T19:28:12.284Z,133.50
2023-05-05T19:30:45.192Z,125.65
2023-05-05T19:33:14.177Z,132.70
2023-05-05T19:35:41.435Z,130.75
2023-05-05T19:38:11.838Z,129.10
2023-05-05T19:40:43.968Z,137.02
2023-05-05T19:43:18.635Z,135.57
2023-05-05T19:45:47.994Z,135.30
2023-05-05T19:48:19.856Z,130.50
2023-05-05T19:50:51.137Z,129.40
2023-05-05T19:53:18.218Z,135.77
2023-05-05T19:55:47.525Z,129.15
2023-05-05T19:58:14.858Z,135.23
2023-05-05T20:00:46.701Z,133.85
2023-05-05T20:03:17.798Z,134.50
2023-05-05T20:05:44.943Z,128.98
2023-05-05T20:08:12.442Z,129.43
2023-05-05T20:10:39.604Z,142.65
2023-05-05T20:13:07.093Z,136.73
2023-05-05T20:15:36.054Z,141.30
2023-05-05T20:18:03.260Z,138.05
2023-05-05T20:20:30.406Z,132.65
2023-05-05T20:22:59.380Z,140.77
2023-05-05T20:25:26.371Z,143.98
2023-05-05T20:27:53.497Z,139.43
2023-05-05T20:30:20.664Z,132.45
2023-05-05T20:32:47.536Z,150.68
2023-05-05T20:35:16.783Z,134.40
2023-05-05T20:37:45.030Z,136.15
2023-05-05T20:40:12.865Z,134.15
2023-05-05T20:42:39.656Z,136.43
2023-05-05T20:45:07.353Z,134.20
2023-05-05T20:47:35.428Z,138.23
2023-05-05T20:50:02.690Z,138.52
2023-05-05T20:52:29.815Z,142.48
2023-05-05T20:54:56.910Z,140.70
2023-05-05T20:57:28.190Z,130.82
2023-05-05T20:59:54.949Z,138.20
2023-05-05T21:02:22.170Z,136.90
2023-05-05T21:04:49.470Z,136.18
2023-05-05T21:07:16.238Z,132.48
2023-05-05T21:09:47.998Z,137.02
2023-05-05T21:12:15.143Z,135.13
2023-05-05T21:14:45.927Z,135.48
2023-05-05T21:17:12.681Z,135.35
2023-05-05T21:19:39.452Z,136.63
2023-05-05T21:22:09.019Z,142.27
2023-05-05T21:24:36.146Z,144.18
2023-05-05T21:27:03.280Z,135.52
2023-05-05T21:29:34.588Z,139.27
2023-05-05T21:32:07.404Z,139.38
2023-05-05T21:34:38.476Z,145.23
2023-05-05T21:37:11.359Z,133.70
2023-05-05T21:39:40.822Z,135.60
2023-05-05T21:42:10.776Z,138.60
2023-05-05T21:44:40.869Z,137.27
2023-05-05T21:47:08.044Z,130.80
2023-05-05T21:49:35.131Z,135.60
2023-05-05T21:52:02.226Z,135.35
2023-05-05T21:54:30.672Z,134.77
2023-05-05T21:57:00.193Z,136.13
2023-05-05T21:59:29.643Z,132.20
2023-05-05T22:01:56.593Z,133.43
2023-05-05T22:04:28.766Z,132.23
2023-05-05T22:07:00.510Z,131.48
2023-05-05T22:09:27.743Z,134.88
2023-05-05T22:11:58.361Z,135.70
2023-05-05T22:14:26.115Z,129.45
2023-05-05T22:16:55.909Z,133.77
2023-05-05T22:19:24.187Z,132.88
2023-05-05T22:21:52.472Z,136.23
2023-05-05T22:24:20.626Z,158.20
2023-05-05T22:26:49.286Z,134.98
2023-05-05T22:29:19.321Z,133.93
2023-05-05T22:31:47.416Z,150.55
2023-05-05T22:34:23.136Z,166.25
2023-05-05T22:36:50.615Z,142.18
2023-05-05T22:39:23.856Z,145.40
2023-05-05T22:41:51.831Z,133.50
2023-05-05T22:44:22.484Z,136.85
2023-05-05T22:46:49.668Z,130.93
2023-05-05T22:49:17.626Z,141.88
2023-05-05T22:51:48.135Z,134.43
2023-05-05T22:54:15.344Z,150.70
2023-05-05T22:56:44.649Z,133.45
2023-05-05T22:59:14.291Z,133.25
2023-05-05T23:01:43.510Z,134.13
2023-05-05T23:04:11.923Z,134.25
2023-05-05T23:06:41.601Z,134.00
2023-05-05T23:09:09.743Z,132.60
2023-05-05T23:11:40.241Z,142.18
2023-05-05T23:14:13.792Z,134.95
2023-05-05T23:16:41.582Z,139.02
2023-05-05T23:19:09.849Z,142.27
2023-05-05T23:21:49.237Z,154.93
2023-05-05T23:24:19.252Z,139.23
2023-05-05T23:26:49.178Z,136.95
2023-05-05T23:29:18.665Z,163.68
2023-05-05T23:31:49.445Z,134.60
2023-05-05T23:34:17.849Z,165.13
2023-05-05T23:36:45.427Z,135.40
2023-05-05T23:39:13.517Z,144.27
2023-05-05T23:41:43.341Z,139.88
2023-05-05T23:44:12.810Z,136.32
2023-05-05T23:46:41.873Z,138.70
2023-05-05T23:49:09.869Z,136.63
2023-05-05T23:51:37.801Z,135.23
2023-05-05T23:54:04.972Z,139.80
2023-05-05T23:56:33.139Z,132.57
2023-05-05T23:59:00.325Z,129.35
